Time;durP1;ratioP1;P1;durP2;ratioP2;P2;SDS_P1;SDS_P2;PMS_P1;PMS_P2;Temp;Humidity;BMP_temperature;BMP_pressure;BME280_temperature;BME280_humidity;BME280_pressure;Samples;Min_cycle;Max_cycle;Signal;HPM_P1;HPM_P2
2023/08/09 00:01:13;;;;;;;8.10;1.70;;;11.50;99.90;;;;;;5037067;28;20053;-69
2023/08/09 00:03:39;;;;;;;14.88;1.98;;;11.50;99.90;;;;;;5059831;28;264886;-68
2023/08/09 00:06:05;;;;;;;10.65;1.80;;;11.50;99.90;;;;;;5067843;28;20044;-69
2023/08/09 00:08:32;;;;;;;7.80;1.90;;;11.40;99.90;;;;;;5062255;28;270979;-69
2023/08/09 00:10:58;;;;;;;7.63;1.65;;;11.40;99.90;;;;;;5062911;28;20620;-69
2023/08/09 00:13:24;;;;;;;12.48;2.00;;;11.40;99.90;;;;;;5060642;28;256435;-69
2023/08/09 00:15:51;;;;;;;10.27;1.75;;;11.30;99.90;;;;;;5070242;28;20426;-69
2023/08/09 00:18:17;;;;;;;9.20;1.90;;;11.40;99.90;;;;;;5051191;28;233024;-69
2023/08/09 00:20:43;;;;;;;11.40;2.08;;;11.30;99.90;;;;;;5071605;28;20415;-69
2023/08/09 00:23:09;;;;;;;8.82;2.00;;;11.30;99.90;;;;;;5062128;28;273060;-68
2023/08/09 00:25:35;;;;;;;9.85;2.10;;;11.30;99.90;;;;;;5067521;28;20059;-69
2023/08/09 00:28:02;;;;;;;9.40;2.25;;;11.30;99.90;;;;;;5050748;28;273842;-69
2023/08/09 00:30:28;;;;;;;8.45;2.20;;;11.30;99.90;;;;;;5071523;28;20064;-70
2023/08/09 00:32:54;;;;;;;8.00;1.90;;;11.30;99.90;;;;;;5053248;28;268526;-70
2023/08/09 00:35:20;;;;;;;8.75;1.80;;;11.20;99.90;;;;;;5068315;28;20052;-69
2023/08/09 00:37:46;;;;;;;8.38;1.80;;;11.20;99.90;;;;;;5055747;28;273845;-69
2023/08/09 00:40:12;;;;;;;8.38;2.25;;;11.20;99.90;;;;;;5073423;28;20044;-69
2023/08/09 00:42:42;;;;;;;8.45;2.22;;;11.20;99.90;;;;;;5053485;28;271636;-69
2023/08/09 00:45:09;;;;;;;9.15;2.13;;;11.20;99.90;;;;;;5069002;28;20052;-69
2023/08/09 00:47:36;;;;;;;8.50;2.45;;;11.20;99.90;;;;;;5048643;28;264759;-69
2023/08/09 00:50:03;;;;;;;9.88;2.53;;;11.20;99.90;;;;;;5070922;28;20052;-69
2023/08/09 00:52:29;;;;;;;10.93;2.22;;;11.10;99.90;;;;;;5039894;28;268510;-69
2023/08/09 00:54:57;;;;;;;12.07;2.20;;;11.10;99.90;;;;;;5064319;28;20040;-69
2023/08/09 00:57:23;;;;;;;8.52;2.20;;;11.10;99.90;;;;;;5056151;28;271210;-69
2023/08/09 00:59:49;;;;;;;7.97;2.28;;;11.10;99.90;;;;;;5070146;28;20048;-69
2023/08/09 01:02:15;;;;;;;10.30;2.47;;;11.00;99.90;;;;;;5048206;28;259453;-69
2023/08/09 01:04:41;;;;;;;7.88;2.22;;;11.00;99.90;;;;;;5070518;28;20051;-69
2023/08/09 01:07:29;;;;;;;9.95;2.38;;;11.00;99.90;;;;;;5056083;28;254857;-70
2023/08/09 01:10:09;;;;;;;8.07;2.28;;;10.90;99.90;;;;;;5071257;28;20529;-68
2023/08/09 01:12:41;;;;;;;9.57;2.40;;;10.90;99.90;;;;;;5060590;28;269606;-69
2023/08/09 01:15:12;;;;;;;11.43;2.60;;;10.90;99.90;;;;;;5078103;28;20045;-68
2023/08/09 01:17:40;;;;;;;9.57;2.50;;;10.80;99.90;;;;;;5053507;28;276046;-68
2023/08/09 01:20:11;;;;;;;8.60;2.70;;;10.90;99.90;;;;;;5071408;28;20040;-68
2023/08/09 01:23:11;;;;;;;9.77;2.70;;;10.80;99.90;;;;;;5059303;28;138541;-69
2023/08/09 01:25:38;;;;;;;9.25;2.60;;;10.80;99.90;;;;;;5047823;28;20041;-68
2023/08/09 01:28:05;;;;;;;9.48;2.83;;;10.80;99.90;;;;;;5058870;28;277871;-68
2023/08/09 01:30:31;;;;;;;9.55;2.97;;;10.80;99.90;;;;;;5069395;28;20061;-69
2023/08/09 01:32:58;;;;;;;10.55;3.08;;;10.80;99.90;;;;;;5031257;28;163525;-68
2023/08/09 01:35:26;;;;;;;12.10;3.35;;;10.80;99.90;;;;;;5054765;28;20080;-68
2023/08/09 01:37:58;;;;;;;10.48;3.10;;;10.80;99.90;;;;;;5046697;28;195827;-68
2023/08/09 01:40:25;;;;;;;13.50;3.17;;;10.80;99.90;;;;;;5061436;28;20053;-68
2023/08/09 01:42:51;;;;;;;10.27;3.08;;;10.70;99.90;;;;;;5039664;28;117276;-68
2023/08/09 01:45:19;;;;;;;12.00;3.10;;;10.70;99.90;;;;;;5051487;28;20049;-69
2023/08/09 01:47:45;;;;;;;10.98;3.67;;;10.70;99.90;;;;;;5051799;28;270359;-68
2023/08/09 01:50:20;;;;;;;11.60;3.50;;;10.70;99.90;;;;;;5049237;28;20057;-69
2023/08/09 01:52:46;;;;;;;10.50;3.45;;;10.70;99.90;;;;;;5033412;28;274245;-68
2023/08/09 01:55:19;;;;;;;10.48;3.30;;;10.70;99.90;;;;;;5071615;28;20037;-68
2023/08/09 01:57:46;;;;;;;10.63;3.50;;;10.60;99.90;;;;;;5044505;28;255054;-68
2023/08/09 02:00:16;;;;;;;12.70;3.95;;;10.70;99.90;;;;;;5068134;28;20055;-68
2023/08/09 02:02:42;;;;;;;14.10;4.27;;;10.70;99.90;;;;;;5048946;28;134262;-68
2023/08/09 02:05:10;;;;;;;10.68;3.80;;;10.70;99.90;;;;;;5074439;28;20056;-68
2023/08/09 02:07:36;;;;;;;13.00;3.80;;;10.70;99.90;;;;;;5054223;28;269825;-68
2023/08/09 02:10:04;;;;;;;10.57;3.63;;;10.70;99.90;;;;;;5073039;28;20430;-68
2023/08/09 02:12:30;;;;;;;10.23;3.80;;;10.60;99.90;;;;;;5058366;28;269077;-68
2023/08/09 02:14:57;;;;;;;11.20;3.85;;;10.60;99.90;;;;;;5055267;28;20049;-67
2023/08/09 02:17:23;;;;;;;14.77;4.22;;;10.60;99.90;;;;;;5054065;28;255878;-68
2023/08/09 02:19:49;;;;;;;15.93;4.57;;;10.60;99.90;;;;;;5076200;28;20045;-68
2023/08/09 02:22:19;;;;;;;12.93;4.47;;;10.70;99.90;;;;;;5056459;28;275203;-69
2023/08/09 02:24:46;;;;;;;14.27;4.60;;;10.70;99.90;;;;;;5065951;28;20045;-69
2023/08/09 02:27:12;;;;;;;14.02;5.00;;;10.60;99.90;;;;;;5052507;28;259811;-68
2023/08/09 02:29:38;;;;;;;10.90;3.83;;;10.70;99.90;;;;;;5078473;28;20056;-69
2023/08/09 02:32:05;;;;;;;13.27;5.00;;;10.60;99.90;;;;;;5053787;28;255160;-68
2023/08/09 02:34:31;;;;;;;12.63;4.93;;;10.60;99.90;;;;;;5071426;28;20051;-68
2023/08/09 02:36:57;;;;;;;10.38;4.38;;;10.60;99.90;;;;;;5058311;28;255227;-68
2023/08/09 02:39:24;;;;;;;16.25;4.88;;;10.60;99.90;;;;;;5076282;28;20044;-68
2023/08/09 02:41:50;;;;;;;11.75;4.13;;;10.50;99.90;;;;;;5051241;28;268613;-69
2023/08/09 02:44:16;;;;;;;12.38;4.65;;;10.50;99.90;;;;;;5070627;28;20534;-69
2023/08/09 02:46:42;;;;;;;11.25;4.55;;;10.50;99.90;;;;;;5051218;28;257814;-69
2023/08/09 02:49:08;;;;;;;10.50;4.22;;;10.50;99.90;;;;;;5076252;28;20049;-69
2023/08/09 02:51:35;;;;;;;13.95;4.82;;;10.50;99.90;;;;;;5055600;28;260520;-68
2023/08/09 02:54:05;;;;;;;12.32;4.80;;;10.50;99.90;;;;;;5036912;28;208102;-69
2023/08/09 02:56:32;;;;;;;10.65;4.40;;;10.50;99.90;;;;;;5046945;28;20064;-68
2023/08/09 02:58:59;;;;;;;10.00;4.63;;;10.50;99.90;;;;;;5052074;28;180302;-68
2023/08/09 03:01:26;;;;;;;14.52;4.60;;;10.50;99.90;;;;;;5055781;28;20049;-69
2023/08/09 03:03:53;;;;;;;12.68;5.05;;;10.50;99.90;;;;;;5059853;28;268739;-69
2023/08/09 03:06:23;;;;;;;11.90;4.72;;;10.50;99.90;;;;;;5060635;28;20065;-68
2023/08/09 03:08:51;;;;;;;11.95;4.85;;;10.50;99.90;;;;;;5042141;28;130931;-69
2023/08/09 03:11:24;;;;;;;11.38;4.32;;;10.40;99.90;;;;;;5065983;28;20065;-70
2023/08/09 03:13:51;;;;;;;13.45;4.80;;;10.40;99.90;;;;;;5060609;28;257489;-69
2023/08/09 03:16:18;;;;;;;10.55;4.68;;;10.40;99.90;;;;;;5067464;28;20060;-69
2023/08/09 03:18:44;;;;;;;13.43;4.88;;;10.30;99.90;;;;;;5054759;28;257657;-69
2023/08/09 03:21:10;;;;;;;11.60;5.35;;;10.30;99.90;;;;;;5064700;28;20074;-69
2023/08/09 03:23:36;;;;;;;13.43;4.85;;;10.30;99.90;;;;;;5050128;28;107011;-68
2023/08/09 03:26:04;;;;;;;12.88;4.60;;;10.30;99.90;;;;;;5063455;28;20048;-68
2023/08/09 03:28:32;;;;;;;13.00;5.13;;;10.30;99.90;;;;;;5063484;28;242520;-69
2023/08/09 03:30:58;;;;;;;11.25;4.82;;;10.20;99.90;;;;;;5066563;28;20037;-69
2023/08/09 03:33:26;;;;;;;9.93;4.35;;;10.20;99.90;;;;;;5063815;28;264000;-69
2023/08/09 03:35:52;;;;;;;12.07;5.20;;;10.20;99.90;;;;;;5070002;28;20503;-69
2023/08/09 03:38:18;;;;;;;13.05;4.57;;;10.20;99.90;;;;;;5053679;28;261131;-70
2023/08/09 03:40:44;;;;;;;14.07;4.72;;;10.20;99.90;;;;;;5067674;28;20048;-69
2023/08/09 03:43:10;;;;;;;10.23;4.72;;;10.20;99.90;;;;;;5060691;28;253864;-68
2023/08/09 03:45:36;;;;;;;12.60;5.43;;;10.10;99.90;;;;;;5069506;28;20044;-68
2023/08/09 03:48:03;;;;;;;14.60;5.00;;;10.10;99.90;;;;;;5062015;28;259010;-69
2023/08/09 03:50:29;;;;;;;12.32;4.68;;;10.10;99.90;;;;;;5071874;28;20071;-68
2023/08/09 03:52:55;;;;;;;11.07;4.50;;;10.10;99.90;;;;;;5036092;28;268340;-69
2023/08/09 03:55:21;;;;;;;10.63;4.80;;;10.10;99.90;;;;;;5068369;28;20052;-68
2023/08/09 03:57:47;;;;;;;10.65;4.60;;;10.10;99.90;;;;;;5049455;28;218963;-71
2023/08/09 04:00:17;;;;;;;13.65;4.82;;;10.00;99.90;;;;;;5055549;28;20048;-69
2023/08/09 04:02:49;;;;;;;12.63;5.25;;;10.00;99.90;;;;;;5041744;28;267759;-69
2023/08/09 04:05:16;;;;;;;13.70;5.57;;;10.00;99.90;;;;;;5063005;28;20430;-68
2023/08/09 04:07:43;;;;;;;11.65;4.82;;;10.10;99.90;;;;;;5052703;28;266049;-67
2023/08/09 04:10:09;;;;;;;15.23;5.68;;;10.10;99.90;;;;;;5074574;28;20067;-68
2023/08/09 04:12:35;;;;;;;13.32;5.38;;;10.10;99.90;;;;;;5052908;28;197485;-69
2023/08/09 04:15:06;;;;;;;11.93;5.05;;;10.10;99.90;;;;;;5068493;28;20655;-69
2023/08/09 04:17:32;;;;;;;14.97;5.33;;;10.10;99.90;;;;;;5054422;28;258413;-69
2023/08/09 04:19:59;;;;;;;12.23;5.22;;;10.10;99.90;;;;;;5071197;28;20596;-69
2023/08/09 04:22:26;;;;;;;9.93;5.15;;;10.00;99.90;;;;;;5055921;28;276717;-69
2023/08/09 04:24:52;;;;;;;12.02;5.22;;;10.00;99.90;;;;;;5072707;28;20672;-70
2023/08/09 04:27:18;;;;;;;12.93;5.43;;;10.10;99.90;;;;;;5050937;28;262258;-70
2023/08/09 04:29:45;;;;;;;17.70;5.85;;;10.10;99.90;;;;;;5076765;28;20052;-70
2023/08/09 04:32:12;;;;;;;12.32;5.35;;;10.10;99.90;;;;;;5054217;28;273151;-69
2023/08/09 04:34:40;;;;;;;13.07;5.18;;;10.10;99.90;;;;;;5067240;28;20594;-70
2023/08/09 04:37:07;;;;;;;14.65;5.85;;;10.10;99.90;;;;;;5061337;28;259050;-70
2023/08/09 04:39:33;;;;;;;11.45;5.30;;;10.10;99.90;;;;;;5071013;28;20052;-70
2023/08/09 04:41:59;;;;;;;10.82;5.90;;;10.10;99.90;;;;;;5060586;28;95874;-70
2023/08/09 04:44:25;;;;;;;16.98;5.57;;;10.20;99.90;;;;;;5080520;28;20059;-69
2023/08/09 04:46:51;;;;;;;13.68;5.57;;;10.20;99.90;;;;;;5054483;28;262809;-70
2023/08/09 04:49:18;;;;;;;12.02;6.15;;;10.30;99.90;;;;;;5076064;28;20053;-73
2023/08/09 04:51:44;;;;;;;13.40;5.65;;;10.40;99.90;;;;;;5040860;28;265546;-70
2023/08/09 04:54:11;;;;;;;13.73;5.75;;;10.40;99.90;;;;;;5071985;28;20064;-70
2023/08/09 04:56:37;;;;;;;13.65;5.90;;;10.50;99.90;;;;;;5052870;28;266303;-70
2023/08/09 04:59:03;;;;;;;13.13;5.95;;;10.60;99.90;;;;;;5069393;28;20053;-69
2023/08/09 05:01:30;;;;;;;14.73;7.13;;;10.60;99.90;;;;;;5058818;28;20079;-70
2023/08/09 05:03:56;;;;;;;19.65;6.68;;;10.70;99.90;;;;;;5062100;28;264801;-70
2023/08/09 05:06:22;;;;;;;13.90;5.35;;;10.70;99.90;;;;;;5070281;28;20414;-69
2023/08/09 05:08:48;;;;;;;13.75;5.55;;;10.80;99.90;;;;;;5063339;28;259097;-70
2023/08/09 05:11:14;;;;;;;11.15;5.28;;;10.90;99.90;;;;;;5071799;28;20056;-70
2023/08/09 05:13:40;;;;;;;15.20;5.22;;;11.00;99.90;;;;;;5067602;28;278194;-70
2023/08/09 05:16:07;;;;;;;16.10;5.72;;;11.00;99.90;;;;;;5067490;28;20067;-71
2023/08/09 05:18:33;;;;;;;14.75;5.78;;;11.10;99.90;;;;;;5062271;28;275947;-69
2023/08/09 05:20:59;;;;;;;12.80;5.70;;;11.20;99.90;;;;;;5065447;28;20044;-69
2023/08/09 05:23:25;;;;;;;9.75;4.90;;;11.30;99.90;;;;;;5066894;28;252924;-69
2023/08/09 05:25:51;;;;;;;12.43;5.20;;;11.40;99.90;;;;;;5069333;28;20052;-70
2023/08/09 05:28:17;;;;;;;11.00;4.97;;;11.50;99.90;;;;;;5056348;28;275552;-70
2023/08/09 05:30:44;;;;;;;10.15;4.05;;;11.70;99.90;;;;;;5067636;28;20048;-70
2023/08/09 05:33:10;;;;;;;9.73;4.13;;;12.00;99.90;;;;;;5056672;28;271172;-69
2023/08/09 05:35:36;;;;;;;12.63;3.95;;;12.40;99.90;;;;;;5071201;28;20450;-69
2023/08/09 05:38:02;;;;;;;10.88;4.22;;;12.60;99.90;;;;;;5061831;28;260497;-69
2023/08/09 05:40:28;;;;;;;10.88;4.38;;;12.90;99.90;;;;;;5072916;28;20407;-70
2023/08/09 05:42:54;;;;;;;11.45;3.72;;;13.10;99.90;;;;;;5055826;28;146678;-68
2023/08/09 05:45:21;;;;;;;11.77;3.72;;;13.30;99.90;;;;;;5066164;28;20052;-69
2023/08/09 05:47:47;;;;;;;9.63;3.47;;;13.60;99.90;;;;;;5056446;28;272978;-69
2023/08/09 05:50:14;;;;;;;12.80;3.42;;;13.80;99.90;;;;;;5062177;28;20063;-69
2023/08/09 05:52:40;;;;;;;10.65;3.10;;;13.90;99.90;;;;;;5039469;28;267786;-69
2023/08/09 05:55:07;;;;;;;10.18;3.05;;;14.10;99.90;;;;;;5060568;28;20040;-69
2023/08/09 05:57:36;;;;;;;9.20;3.30;;;14.40;99.90;;;;;;5051102;28;246927;-70
2023/08/09 06:00:04;;;;;;;10.57;2.92;;;14.60;99.90;;;;;;5060471;28;20688;-69
2023/08/09 06:02:33;;;;;;;8.50;2.70;;;14.80;99.90;;;;;;5042501;28;114255;-70
2023/08/09 06:05:00;;;;;;;8.75;2.53;;;15.10;99.90;;;;;;5062852;28;20059;-70
2023/08/09 06:07:27;;;;;;;7.82;2.70;;;15.30;99.90;;;;;;5047760;28;233723;-70
2023/08/09 06:09:53;;;;;;;11.52;2.20;;;15.50;99.90;;;;;;5069223;28;20064;-71
2023/08/09 06:12:20;;;;;;;8.63;2.33;;;15.70;99.90;;;;;;5055355;28;281662;-71
2023/08/09 06:14:46;;;;;;;9.52;2.40;;;15.90;99.90;;;;;;5078325;28;20044;-70
2023/08/09 06:17:12;;;;;;;8.40;2.25;;;16.00;99.90;;;;;;5048047;28;243172;-70
2023/08/09 06:19:38;;;;;;;7.25;1.92;;;16.10;99.90;;;;;;5077261;28;20048;-69
2023/08/09 06:22:04;;;;;;;7.97;2.30;;;16.40;99.90;;;;;;5054166;28;264652;-70
2023/08/09 06:24:30;;;;;;;6.80;1.80;;;16.50;99.90;;;;;;5074557;28;20060;-70
2023/08/09 06:26:57;;;;;;;6.95;2.03;;;16.70;99.90;;;;;;5052558;28;270973;-68
2023/08/09 06:29:23;;;;;;;9.20;1.75;;;16.80;99.90;;;;;;5065172;28;20064;-69
2023/08/09 06:31:50;;;;;;;7.10;2.00;;;16.60;99.90;;;;;;5047554;28;275002;-70
2023/08/09 06:34:16;;;;;;;7.72;1.80;;;16.80;99.90;;;;;;5036129;28;1066213;-70
2023/08/09 06:36:42;;;;;;;6.45;1.70;;;16.90;99.90;;;;;;5053810;28;261462;-69
2023/08/09 06:39:09;;;;;;;7.53;1.70;;;17.00;99.90;;;;;;5075502;28;20624;-69
2023/08/09 06:41:35;;;;;;;5.63;1.60;;;17.00;99.90;;;;;;5054197;28;261972;-69
2023/08/09 06:44:01;;;;;;;6.32;1.52;;;17.30;99.90;;;;;;5085110;28;20419;-69
2023/08/09 06:46:27;;;;;;;6.38;1.40;;;17.40;99.90;;;;;;5070225;28;20487;-69
2023/08/09 06:48:53;;;;;;;10.20;1.65;;;17.50;99.90;;;;;;5052574;28;49469;-69
2023/08/09 06:51:20;;;;;;;12.82;1.70;;;17.70;99.90;;;;;;5070061;28;20063;-69
2023/08/09 06:53:47;;;;;;;7.20;1.20;;;17.80;99.90;;;;;;5042401;28;274046;-69
2023/08/09 06:56:13;;;;;;;7.75;1.27;;;17.80;99.90;;;;;;5066183;28;20075;-69
2023/08/09 06:58:39;;;;;;;6.95;1.20;;;17.80;99.90;;;;;;5052829;28;263828;-69
2023/08/09 07:01:08;;;;;;;8.05;1.33;;;18.10;99.90;;;;;;5054883;28;20052;-70
2023/08/09 07:03:36;;;;;;;6.80;1.38;;;18.20;99.90;;;;;;5057827;28;281210;-71
2023/08/09 07:06:02;;;;;;;5.28;1.17;;;18.40;99.90;;;;;;5069869;28;20039;-70
2023/08/09 07:08:28;;;;;;;7.35;1.60;;;18.60;99.90;;;;;;5056433;28;273981;-70
2023/08/09 07:10:55;;;;;;;6.32;1.05;;;18.70;99.90;;;;;;5068591;28;20055;-70
2023/08/09 07:13:21;;;;;;;7.70;1.25;;;18.80;99.90;;;;;;5064976;28;257631;-69
2023/08/09 07:15:48;;;;;;;9.10;1.50;;;18.80;99.90;;;;;;5059996;28;20415;-69
2023/08/09 07:18:14;;;;;;;7.78;1.20;;;18.80;99.90;;;;;;5063604;28;272627;-69
2023/08/09 07:20:40;;;;;;;6.72;1.25;;;18.90;99.90;;;;;;5067439;28;20048;-68
2023/08/09 07:23:06;;;;;;;4.13;1.00;;;19.10;99.90;;;;;;5056581;28;276241;-68
2023/08/09 07:25:32;;;;;;;5.50;1.02;;;19.30;99.90;;;;;;5066486;28;20048;-68
2023/08/09 07:27:58;;;;;;;6.97;1.20;;;19.40;99.90;;;;;;5060443;28;256932;-68
2023/08/09 07:30:24;;;;;;;7.90;1.00;;;19.30;99.90;;;;;;5073334;28;20052;-68
2023/08/09 07:32:50;;;;;;;9.00;1.40;;;19.40;99.90;;;;;;5052788;28;259928;-68
2023/08/09 07:35:17;;;;;;;6.90;1.10;;;19.50;99.90;;;;;;5069378;28;20123;-69
2023/08/09 07:37:45;;;;;;;5.80;1.27;;;19.60;99.90;;;;;;5057565;28;97460;-69
2023/08/09 07:40:13;;;;;;;5.63;1.20;;;19.80;99.90;;;;;;5068502;28;20069;-69
2023/08/09 07:42:40;;;;;;;7.00;1.20;;;19.90;99.90;;;;;;5053392;28;254046;-69
2023/08/09 07:45:07;;;;;;;5.65;1.17;;;19.90;99.90;;;;;;5060436;28;20076;-70
2023/08/09 07:47:33;;;;;;;5.50;1.10;;;20.00;99.90;;;;;;5053884;28;252783;-67
2023/08/09 07:50:00;;;;;;;6.85;1.20;;;20.30;99.90;;;;;;5076568;28;20052;-69
2023/08/09 07:52:26;;;;;;;4.68;1.02;;;20.40;99.90;;;;;;5039090;28;259037;-69
2023/08/09 07:54:52;;;;;;;6.07;0.90;;;20.70;99.90;;;;;;5069339;28;20056;-68
2023/08/09 07:57:19;;;;;;;6.05;0.95;;;20.50;99.90;;;;;;5055830;28;255305;-69
2023/08/09 07:59:45;;;;;;;7.10;1.23;;;20.50;99.90;;;;;;5066575;28;20052;-68
2023/08/09 08:02:11;;;;;;;6.75;1.13;;;20.50;99.90;;;;;;5039119;28;270506;-69
2023/08/09 08:04:37;;;;;;;5.10;0.90;;;20.70;99.90;;;;;;5071561;28;20048;-68
2023/08/09 08:07:03;;;;;;;4.85;0.98;;;20.60;99.80;;;;;;5052913;28;270301;-68
2023/08/09 08:09:32;;;;;;;6.53;1.30;;;20.90;99.80;;;;;;5070886;28;20056;-69
2023/08/09 08:11:59;;;;;;;5.78;1.00;;;20.80;97.60;;;;;;5052320;28;268362;-68
2023/08/09 08:14:25;;;;;;;7.25;1.10;;;20.50;98.40;;;;;;5077903;28;20056;-68
2023/08/09 08:16:51;;;;;;;6.97;1.15;;;20.50;97.70;;;;;;5045261;28;265956;-68
2023/08/09 08:19:17;;;;;;;8.63;1.38;;;20.60;98.70;;;;;;5081127;28;20052;-68
2023/08/09 08:21:43;;;;;;;5.68;1.10;;;20.70;98.70;;;;;;5049054;28;255192;-69
2023/08/09 08:24:11;;;;;;;5.53;1.00;;;20.90;98.90;;;;;;5078790;28;20049;-69
2023/08/09 08:26:38;;;;;;;5.35;1.08;;;20.80;97.30;;;;;;5045123;28;269510;-69
2023/08/09 08:29:04;;;;;;;6.28;1.10;;;21.00;97.30;;;;;;5061450;28;20530;-68
2023/08/09 08:31:30;;;;;;;7.72;1.38;;;21.10;97.30;;;;;;5065711;28;20151;-69
2023/08/09 08:33:56;;;;;;;5.57;1.10;;;21.40;97.50;;;;;;5056190;28;260897;-69
2023/08/09 08:36:22;;;;;;;4.90;1.00;;;21.60;96.90;;;;;;5062644;28;20063;-69
2023/08/09 08:38:50;;;;;;;7.18;1.20;;;21.50;96.50;;;;;;5062455;28;267252;-68
2023/08/09 08:41:16;;;;;;;5.35;1.00;;;21.40;97.50;;;;;;5064019;28;20064;-68
2023/08/09 08:43:44;;;;;;;7.88;1.10;;;21.00;97.10;;;;;;5055068;28;274169;-68
2023/08/09 08:46:15;;;;;;;7.80;1.20;;;20.50;97.10;;;;;;5067320;28;20060;-68
2023/08/09 08:48:46;;;;;;;4.90;0.93;;;20.60;97.30;;;;;;5060275;28;254417;-68
2023/08/09 08:51:13;;;;;;;5.00;0.90;;;20.60;96.90;;;;;;5070069;28;20072;-68
2023/08/09 08:53:40;;;;;;;6.00;1.05;;;20.70;96.90;;;;;;5037734;28;254101;-69
2023/08/09 08:56:07;;;;;;;7.85;1.20;;;20.60;97.20;;;;;;5067818;28;20513;-69
2023/08/09 08:58:33;;;;;;;5.80;1.10;;;21.20;97.20;;;;;;5040943;28;198350;-69
2023/08/09 09:01:00;;;;;;;4.82;0.90;;;22.00;96.50;;;;;;5051510;28;20402;-69
2023/08/09 09:03:26;;;;;;;4.47;1.00;;;22.20;95.70;;;;;;5059842;28;259208;-69
2023/08/09 09:05:52;;;;;;;5.53;1.00;;;22.70;95.90;;;;;;5061011;28;20044;-69
2023/08/09 09:08:19;;;;;;;4.18;0.80;;;22.70;94.70;;;;;;5052407;28;276630;-70
2023/08/09 09:10:46;;;;;;;7.25;1.00;;;23.30;94.70;;;;;;5068477;28;20052;-69
2023/08/09 09:13:26;;;;;;;4.25;0.88;;;23.10;94.70;;;;;;5058538;28;260715;-69
2023/08/09 09:15:54;;;;;;;9.02;1.63;;;22.80;93.30;;;;;;5067971;28;20056;-69
2023/08/09 09:18:22;;;;;;;5.93;1.10;;;22.10;95.00;;;;;;5060488;28;256499;-70
2023/08/09 09:20:49;;;;;;;4.50;1.10;;;21.50;95.50;;;;;;5072695;28;20438;-69
2023/08/09 09:23:28;;;;;;;6.53;1.00;;;21.20;95.70;;;;;;5064806;28;264212;-70
2023/08/09 09:26:09;;;;;;;5.63;1.08;;;21.80;95.40;;;;;;5065679;28;20079;-69
2023/08/09 09:28:42;;;;;;;;;;;22.70;94.50;;;;;;5065296;28;276624;-70
2023/08/09 09:31:10;;;;;;;7.47;1.20;;;23.50;93.90;;;;;;5069587;28;19921;-69
2023/08/09 09:33:37;;;;;;;5.65;1.00;;;23.70;93.50;;;;;;5060907;28;43509;-68
2023/08/09 09:36:04;;;;;;;5.45;1.00;;;23.30;94.90;;;;;;5066529;28;20055;-67
2023/08/09 09:38:30;;;;;;;6.30;0.90;;;22.80;94.80;;;;;;5066846;28;255580;-69
2023/08/09 09:40:57;;;;;;;3.80;1.00;;;22.20;93.60;;;;;;5064395;28;20048;-67
2023/08/09 09:43:24;;;;;;;6.97;1.27;;;21.60;94.20;;;;;;5032069;28;177339;-69
2023/08/09 09:45:57;;;;;;;6.47;1.25;;;22.30;94.20;;;;;;5045146;28;20048;-69
2023/08/09 09:48:24;;;;;;;5.18;1.00;;;22.90;93.60;;;;;;5050028;28;255531;-69
2023/08/09 09:50:50;;;;;;;5.63;1.23;;;22.30;93.80;;;;;;5075660;28;20052;-69
2023/08/09 09:53:18;;;;;;;5.25;1.00;;;21.60;94.40;;;;;;5046614;28;253312;-69
2023/08/09 09:55:45;;;;;;;3.78;0.90;;;21.30;94.00;;;;;;5070645;28;20411;-68
2023/08/09 09:58:12;;;;;;;5.68;1.00;;;21.10;94.00;;;;;;5063228;28;270164;-69
2023/08/09 10:00:49;;;;;;;5.72;1.17;;;20.80;94.60;;;;;;5060351;28;20056;-68
2023/08/09 10:03:21;;;;;;;5.15;1.08;;;21.30;94.50;;;;;;5058495;28;270831;-68
2023/08/09 10:05:49;;;;;;;4.50;1.08;;;21.50;94.60;;;;;;5063260;28;20041;-69
2023/08/09 10:08:16;;;;;;;6.20;1.10;;;22.20;93.90;;;;;;5056206;28;258671;-68
2023/08/09 10:10:45;;;;;;;5.75;1.20;;;23.20;93.20;;;;;;5061915;28;20083;-69
2023/08/09 10:13:15;;;;;;;6.75;1.20;;;23.30;93.30;;;;;;5063362;28;269403;-68
2023/08/09 10:15:49;;;;;;;5.40;1.00;;;23.30;92.20;;;;;;5057298;28;20071;-68
2023/08/09 10:18:20;;;;;;;5.47;0.90;;;23.00;92.80;;;;;;5064875;28;278103;-68
2023/08/09 10:20:51;;;;;;;7.80;1.20;;;22.50;93.10;;;;;;5060179;28;20059;-68
2023/08/09 10:23:25;;;;;;;6.13;1.35;;;23.00;92.30;;;;;;5059007;28;254498;-69
2023/08/09 10:25:53;;;;;;;4.55;1.00;;;23.30;91.70;;;;;;5066156;28;20483;-69
2023/08/09 10:28:45;;;;;;;5.03;0.90;;;22.60;92.40;;;;;;5056760;28;260964;-68
2023/08/09 10:31:14;;;;;;;4.70;1.08;;;22.30;92.70;;;;;;5069580;28;20056;-68
2023/08/09 10:34:11;;;;;;;5.65;1.08;;;21.80;93.30;;;;;;5056971;28;271088;-69
2023/08/09 10:36:37;;;;;;;5.03;1.00;;;21.70;93.70;;;;;;5051755;28;259327;-69
2023/08/09 10:39:14;;;;;;;5.30;1.10;;;21.60;94.00;;;;;;5075547;28;20384;-69
2023/08/09 10:42:19;;;;;;;8.75;1.10;;;21.40;94.20;;;;;;5049389;28;271881;-68
2023/08/09 10:44:50;;;;;;;4.15;1.00;;;22.20;94.10;;;;;;5046594;28;20056;-69
2023/08/09 10:47:18;;;;;;;4.97;1.10;;;23.30;93.80;;;;;;5024365;28;20049;-68
2023/08/09 10:49:48;;;;;;;4.15;1.02;;;22.90;93.00;;;;;;5045835;28;20079;-68
2023/08/09 10:52:16;;;;;;;6.75;1.20;;;22.50;93.00;;;;;;5013712;28;179504;-68
2023/08/09 10:54:43;;;;;;;3.97;1.00;;;22.70;93.10;;;;;;5037492;28;20063;-69
2023/08/09 10:57:10;;;;;;;5.35;1.17;;;23.50;93.20;;;;;;5036298;28;190814;-68
2023/08/09 10:59:43;;;;;;;6.47;1.20;;;23.70;92.80;;;;;;5050709;28;20053;-68
2023/08/09 11:02:09;;;;;;;6.60;1.10;;;23.60;93.10;;;;;;5041121;28;20527;-68
2023/08/09 11:04:36;;;;;;;4.93;1.23;;;23.90;92.70;;;;;;5044817;28;20052;-69
2023/08/09 11:07:02;;;;;;;5.90;1.00;;;23.90;92.60;;;;;;5030409;28;220690;-68
2023/08/09 11:09:32;;;;;;;6.35;1.10;;;23.80;93.00;;;;;;5041998;28;20053;-68
2023/08/09 11:11:58;;;;;;;6.72;1.20;;;23.60;93.00;;;;;;5022297;28;234717;-68
2023/08/09 11:14:25;;;;;;;7.03;1.40;;;23.30;92.60;;;;;;5047385;28;20056;-68
2023/08/09 11:16:52;;;;;;;5.15;1.10;;;22.50;93.20;;;;;;5042070;28;270928;-69
2023/08/09 11:19:19;;;;;;;4.80;1.02;;;22.00;93.60;;;;;;5056945;28;20523;-68
2023/08/09 11:21:50;;;;;;;5.40;1.02;;;22.50;93.90;;;;;;5051560;28;267795;-69
2023/08/09 11:24:19;;;;;;;6.07;1.30;;;23.40;93.90;;;;;;5077283;28;20494;-69
2023/08/09 11:26:48;;;;;;;6.23;1.40;;;23.90;92.70;;;;;;5042970;28;278027;-68
2023/08/09 11:29:18;;;;;;;6.20;1.10;;;23.50;91.80;;;;;;5066965;28;20056;-68
2023/08/09 11:31:50;;;;;;;8.48;1.30;;;22.90;92.80;;;;;;5057397;28;271127;-68
2023/08/09 11:34:18;;;;;;;6.38;1.10;;;22.50;93.40;;;;;;5075239;28;20059;-68
2023/08/09 11:36:47;;;;;;;7.25;1.30;;;22.80;93.40;;;;;;5045808;28;259736;-68
2023/08/09 11:39:14;;;;;;;5.97;1.10;;;23.00;93.20;;;;;;5045308;28;20061;-69
2023/08/09 11:41:54;;;;;;;5.00;1.20;;;23.30;93.30;;;;;;5048424;28;263382;-69
2023/08/09 11:44:25;;;;;;;5.68;1.20;;;23.40;92.70;;;;;;5066981;28;20056;-69
2023/08/09 11:46:54;;;;;;;4.80;1.10;;;23.70;93.20;;;;;;5046854;28;271856;-69
2023/08/09 11:49:33;;;;;;;6.10;1.35;;;24.30;93.30;;;;;;5081896;28;20063;-70
2023/08/09 11:52:00;;;;;;;5.03;1.10;;;24.90;92.80;;;;;;5041110;28;276293;-69
2023/08/09 11:54:27;;;;;;;5.88;1.20;;;25.00;92.30;;;;;;5069502;28;20063;-69
2023/08/09 11:56:54;;;;;;;6.60;1.30;;;25.30;92.60;;;;;;5058018;28;275552;-70
2023/08/09 11:59:22;;;;;;;6.45;1.40;;;25.40;92.70;;;;;;5059327;28;20057;-70
2023/08/09 12:01:51;;;;;;;5.95;1.33;;;25.10;92.80;;;;;;5048154;28;261930;-70
2023/08/09 12:04:22;;;;;;;6.80;1.30;;;24.60;92.80;;;;;;5069106;28;20053;-71
2023/08/09 12:06:54;;;;;;;;;;;24.70;92.60;;;;;;5051304;28;253679;-69
2023/08/09 12:09:39;;;;;;;7.35;1.30;;;24.70;92.60;;;;;;5063781;28;19916;-68
2023/08/09 12:12:16;;;;;;;6.05;1.30;;;24.90;91.90;;;;;;5049676;28;257350;-69
2023/08/09 12:14:50;;;;;;;6.63;1.40;;;24.60;91.90;;;;;;5071773;28;20057;-69
2023/08/09 12:17:29;;;;;;;6.65;1.55;;;24.10;92.40;;;;;;5053173;28;276347;-69
2023/08/09 12:20:00;;;;;;;6.85;1.35;;;23.80;92.30;;;;;;5066579;28;20041;-69
2023/08/09 12:22:28;;;;;;;7.65;1.40;;;23.80;93.30;;;;;;5062173;28;281314;-72
2023/08/09 12:24:56;;;;;;;8.55;1.67;;;23.50;93.40;;;;;;5072720;28;20053;-69
2023/08/09 12:27:23;;;;;;;8.00;1.50;;;23.00;93.70;;;;;;5061416;28;270080;-69
2023/08/09 12:29:50;;;;;;;6.70;1.30;;;22.70;94.00;;;;;;5070411;28;20394;-69
2023/08/09 12:32:17;;;;;;;8.10;1.40;;;22.70;94.10;;;;;;5060460;28;273265;-68
2023/08/09 12:34:44;;;;;;;6.05;1.27;;;22.60;93.70;;;;;;5076024;28;20052;-69
2023/08/09 12:37:11;;;;;;;5.68;1.25;;;22.50;94.00;;;;;;5052284;28;67322;-68
2023/08/09 12:39:37;;;;;;;7.35;1.30;;;22.60;94.10;;;;;;5085241;28;20071;-69
2023/08/09 12:42:03;;;;;;;8.80;1.50;;;23.10;94.10;;;;;;5053847;28;254034;-68